Time;durP1;ratioP1;P1;durP2;ratioP2;P2;SDS_P1;SDS_P2;PMS_P1;PMS_P2;Temp;Humidity;BMP_temperature;BMP_pressure;BME280_temperature;BME280_humidity;BME280_pressure;Samples;Min_cycle;Max_cycle;Signal;HPM_P1;HPM_P2
2021/12/11 00:01:42;;;;;;;4.53;2.00;;;;;;;3.77;80.37;98440.06;5029675;28;20485;-78
2021/12/11 00:04:17;;;;;;;2.85;1.98;;;;;;;3.76;80.15;98438.38;5021850;28;20217;-78
2021/12/11 00:06:47;;;;;;;2.20;1.73;;;;;;;3.77;80.14;98446.06;5020708;28;20230;-78
2021/12/11 00:09:45;;;;;;;6.32;2.80;;;;;;;3.72;80.05;98442.88;5023823;28;20268;-79
2021/12/11 00:12:40;;;;;;;3.30;1.85;;;;;;;3.72;80.14;98447.25;5021241;28;20240;-78
2021/12/11 00:15:14;;;;;;;2.10;1.52;;;;;;;3.69;80.04;98448.25;5020287;28;20238;-77
2021/12/11 00:17:40;;;;;;;3.17;1.65;;;;;;;3.68;80.10;98451.78;5023565;28;20206;-78
2021/12/11 00:20:15;;;;;;;2.73;2.27;;;;;;;3.69;80.33;98450.03;5022194;28;20226;-78
2021/12/11 00:22:41;;;;;;;2.58;1.80;;;;;;;3.69;79.93;98458.63;5023705;28;20324;-78
2021/12/11 00:25:09;;;;;;;4.10;1.60;;;;;;;3.68;80.04;98467.38;5019611;28;20683;-78
2021/12/11 00:27:38;;;;;;;6.00;1.70;;;;;;;3.67;80.43;98465.69;5028825;28;20225;-78
2021/12/11 00:30:07;;;;;;;3.05;1.40;;;;;;;3.65;80.09;98472.72;5036705;28;20221;-77
2021/12/11 00:32:35;;;;;;;4.20;2.20;;;;;;;3.65;80.60;98472.72;5033420;28;20243;-78
2021/12/11 00:35:09;;;;;;;8.10;1.73;;;;;;;3.65;80.61;98471.91;5028568;28;20249;-79
2021/12/11 00:37:34;;;;;;;2.22;1.55;;;;;;;3.64;80.18;98471.03;5022699;28;20276;-77
2021/12/11 00:40:06;;;;;;;3.00;1.17;;;;;;;3.63;80.32;98477.16;5025800;28;20361;-78
2021/12/11 00:42:34;;;;;;;1.63;1.25;;;;;;;3.63;80.31;98471.13;5015073;28;20221;-77
2021/12/11 00:45:09;;;;;;;1.65;1.55;;;;;;;3.62;80.37;98488.47;5018877;28;20278;-79
2021/12/11 00:47:42;;;;;;;3.63;1.80;;;;;;;3.60;80.22;98490.31;5023139;28;20706;-78
2021/12/11 00:50:12;;;;;;;3.33;1.98;;;;;;;3.60;80.50;98502.47;5016169;28;20190;-77
2021/12/11 00:52:54;;;;;;;3.58;1.58;;;;;;;3.60;80.42;98515.44;5022839;28;20235;-78
2021/12/11 00:55:25;;;;;;;5.18;1.42;;;;;;;3.59;80.27;98505.94;5021328;28;20234;-78
2021/12/11 00:58:06;;;;;;;2.10;1.50;;;;;;;3.59;80.34;98504.19;5017733;28;20207;-78
2021/12/11 01:00:38;;;;;;;2.20;1.92;;;;;;;3.58;80.41;98510.31;5019949;28;20610;-78
2021/12/11 01:03:05;;;;;;;5.10;1.88;;;;;;;3.59;80.31;98513.75;5022404;28;20221;-79
2021/12/11 01:05:42;;;;;;;3.08;1.70;;;;;;;3.58;80.52;98518.09;5018519;28;20219;-78
2021/12/11 01:08:23;;;;;;;2.78;1.85;;;;;;;3.57;80.13;98521.63;5019680;28;20217;-77
2021/12/11 01:10:56;;;;;;;5.28;1.90;;;;;;;3.57;80.41;98529.41;5023155;28;20210;-77
2021/12/11 01:13:25;;;;;;;4.60;1.58;;;;;;;3.56;80.38;98535.50;5020763;28;20213;-77
2021/12/11 01:15:56;;;;;;;4.43;1.70;;;;;;;3.57;80.50;98541.56;5025653;28;20237;-78
2021/12/11 01:18:34;;;;;;;3.58;1.30;;;;;;;3.58;80.36;98554.44;5025543;28;20205;-78
2021/12/11 01:21:27;;;;;;;2.17;1.50;;;;;;;3.58;80.45;98561.41;5019904;28;20230;-78
2021/12/11 01:24:10;;;;;;;1.65;1.08;;;;;;;3.57;80.49;98559.75;5020392;28;20338;-78
2021/12/11 01:26:48;;;;;;;2.85;1.50;;;;;;;3.57;80.39;98570.97;5023360;28;20241;-79
2021/12/11 01:29:16;;;;;;;2.92;1.73;;;;;;;3.56;80.35;98584.84;5022310;28;20214;-79
2021/12/11 01:31:41;;;;;;;2.67;1.77;;;;;;;3.56;80.37;98582.25;5023106;28;20235;-78
2021/12/11 01:34:08;;;;;;;3.50;2.00;;;;;;;3.56;80.38;98584.84;5019630;28;20248;-78
2021/12/11 01:36:34;;;;;;;3.70;1.67;;;;;;;3.57;80.40;98583.13;5025125;28;20274;-78
2021/12/11 01:39:05;;;;;;;4.78;3.60;;;;;;;3.57;80.55;98596.94;5023797;28;20215;-79
2021/12/11 01:41:31;;;;;;;4.30;2.42;;;;;;;3.58;80.40;98598.59;5025491;28;20249;-79
2021/12/11 01:44:04;;;;;;;2.78;1.75;;;;;;;3.55;80.54;98604.78;5023786;28;20289;-78
2021/12/11 01:46:30;;;;;;;2.97;1.80;;;;;;;3.57;80.33;98607.31;5023238;28;20242;-78
2021/12/11 01:49:01;;;;;;;2.07;1.30;;;;;;;3.59;80.18;98605.44;5027345;28;20206;-78
2021/12/11 01:51:38;;;;;;;3.00;1.67;;;;;;;3.57;80.20;98615.09;5014722;28;20273;-78
2021/12/11 01:54:17;;;;;;;3.38;1.80;;;;;;;3.57;80.11;98615.09;5027774;28;20201;-78
2021/12/11 01:56:48;;;;;;;6.63;1.55;;;;;;;3.57;80.38;98617.69;5026626;28;20260;-77
2021/12/11 01:59:19;;;;;;;2.15;1.70;;;;;;;3.57;79.98;98622.91;5033196;28;20198;-78
2021/12/11 02:01:49;;;;;;;4.50;2.00;;;;;;;3.63;80.27;98627.75;5025545;28;20488;-77
2021/12/11 02:04:19;;;;;;;1.60;1.50;;;;;;;3.62;80.24;98633.88;5023406;28;20217;-78
2021/12/11 02:06:48;;;;;;;3.25;1.60;;;;;;;3.59;80.57;98634.00;5024381;28;20234;-78
2021/12/11 02:09:27;;;;;;;2.08;1.50;;;;;;;3.60;80.26;98642.66;5021026;28;20198;-78
2021/12/11 02:12:24;;;;;;;4.43;1.80;;;;;;;3.58;80.22;98647.09;5019056;28;20298;-77
2021/12/11 02:14:52;;;;;;;2.78;2.15;;;;;;;3.57;80.55;98661.84;5019182;28;20214;-78
2021/12/11 02:17:33;;;;;;;2.10;1.48;;;;;;;3.55;80.48;98663.66;5022406;28;21357;-78
2021/12/11 02:20:01;;;;;;;2.75;1.85;;;;;;;3.56;80.03;98660.13;5015441;28;20206;-76
2021/12/11 02:22:31;;;;;;;7.05;1.75;;;;;;;3.55;80.60;98663.66;5021413;28;20214;-78
2021/12/11 02:25:06;;;;;;;3.45;1.83;;;;;;;3.54;80.68;98657.63;5017696;28;20281;-77
2021/12/11 02:27:36;;;;;;;1.67;1.45;;;;;;;3.53;80.30;98666.31;5013602;28;20229;-78
2021/12/11 02:30:20;;;;;;;6.20;1.38;;;;;;;3.53;80.48;98665.50;5019267;28;20206;-76
2021/12/11 02:33:30;;;;;;;2.72;1.42;;;;;;;3.55;80.60;98666.25;5013632;28;20250;-78
2021/12/11 02:36:11;;;;;;;4.40;2.05;;;;;;;3.52;80.58;98676.81;5024513;28;20230;-79
2021/12/11 02:39:08;;;;;;;6.25;1.98;;;;;;;3.53;80.32;98676.72;5022342;28;20214;-78
2021/12/11 02:41:59;;;;;;;2.45;1.70;;;;;;;3.52;80.43;98677.63;5022429;28;20230;-79
2021/12/11 02:44:45;;;;;;;2.45;1.50;;;;;;;3.54;80.46;98683.59;5018343;28;20214;-78
2021/12/11 02:47:17;;;;;;;3.20;2.03;;;;;;;3.54;80.40;98690.56;5017221;28;20230;-78
2021/12/11 02:49:55;;;;;;;3.83;2.25;;;;;;;3.53;80.23;98686.25;5018481;28;20212;-78
2021/12/11 02:52:21;;;;;;;2.95;1.65;;;;;;;3.52;80.62;98697.56;5022956;28;20206;-78
2021/12/11 02:55:16;;;;;;;2.57;1.40;;;;;;;3.53;80.42;98700.06;5025372;28;20210;-79
2021/12/11 02:57:53;;;;;;;4.40;1.77;;;;;;;3.54;80.39;98693.16;5010657;28;20237;-79
2021/12/11 03:00:30;;;;;;;3.35;1.80;;;;;;;3.52;80.61;98706.19;5021418;28;20238;-79
2021/12/11 03:03:04;;;;;;;3.10;1.90;;;;;;;3.52;80.51;98706.19;5026153;28;20206;-80
2021/12/11 03:05:45;;;;;;;3.35;2.20;;;;;;;3.53;80.51;98710.47;5019325;28;20237;-79
2021/12/11 03:08:15;;;;;;;2.50;1.55;;;;;;;3.54;80.79;98713.94;5023981;28;20229;-78
2021/12/11 03:10:44;;;;;;;5.00;2.15;;;;;;;3.54;80.78;98725.16;5017131;28;21534;-78
2021/12/11 03:13:10;;;;;;;5.22;1.70;;;;;;;3.55;80.67;98731.19;5017336;28;20245;-80
2021/12/11 03:15:35;;;;;;;3.03;1.40;;;;;;;3.55;80.79;98731.19;5022105;28;20231;-80
2021/12/11 03:18:04;;;;;;;3.25;1.55;;;;;;;3.55;80.80;98725.97;5021533;28;20546;-77
2021/12/11 03:20:29;;;;;;;2.08;1.50;;;;;;;3.55;80.62;98745.00;5037312;28;20264;-78
2021/12/11 03:22:55;;;;;;;4.43;1.77;;;;;;;3.54;80.88;98747.69;5021926;28;20871;-78
2021/12/11 03:25:25;;;;;;;3.80;1.43;;;;;;;3.55;80.60;98752.78;5023306;28;20239;-78
2021/12/11 03:27:51;;;;;;;3.38;1.65;;;;;;;3.55;80.80;98757.13;5022059;28;20242;-78
2021/12/11 03:30:22;;;;;;;2.73;2.13;;;;;;;3.57;81.06;98762.28;5020733;28;20853;-79
2021/12/11 03:32:54;;;;;;;6.15;2.50;;;;;;;3.55;80.97;98767.53;5024635;28;20246;-78
2021/12/11 03:35:21;;;;;;;2.30;1.75;;;;;;;3.54;81.33;98779.69;5026059;28;20314;-79
2021/12/11 03:37:46;;;;;;;4.88;1.65;;;;;;;3.53;81.43;98783.16;5018507;28;20242;-76
2021/12/11 03:40:12;;;;;;;1.77;1.53;;;;;;;3.53;81.55;98790.97;5014904;28;20261;-77
2021/12/11 03:42:40;;;;;;;2.17;1.97;;;;;;;3.52;81.59;98797.06;5020194;28;20462;-76
2021/12/11 03:45:13;;;;;;;2.75;1.83;;;;;;;3.53;81.71;98811.72;5020678;28;20206;-78
2021/12/11 03:47:43;;;;;;;4.88;2.70;;;;;;;3.54;81.88;98820.38;5018657;28;20877;-77
2021/12/11 03:50:12;;;;;;;4.32;1.50;;;;;;;3.54;81.90;98829.00;5019413;28;20280;-78
2021/12/11 03:52:41;;;;;;;2.28;1.90;;;;;;;3.52;82.14;98830.81;5021079;28;20234;-75
2021/12/11 03:55:14;;;;;;;3.67;1.40;;;;;;;3.52;81.97;98835.19;5020194;28;20297;-77
2021/12/11 03:57:41;;;;;;;2.67;1.45;;;;;;;3.47;82.15;98835.38;5022613;28;20209;-76
2021/12/11 04:00:11;;;;;;;4.75;2.05;;;;;;;3.45;82.56;98845.00;5020333;28;20412;-77
2021/12/11 04:02:41;;;;;;;3.38;2.10;;;;;;;3.44;82.65;98852.88;5021815;28;20211;-78
2021/12/11 04:05:08;;;;;;;3.08;1.92;;;;;;;3.44;82.70;98858.06;5027387;28;20229;-78
2021/12/11 04:07:41;;;;;;;3.17;1.80;;;;;;;3.40;82.82;98859.94;5023365;28;20225;-78
2021/12/11 04:10:09;;;;;;;3.38;1.45;;;;;;;3.39;82.90;98855.69;5026708;28;20644;-79
2021/12/11 04:12:35;;;;;;;1.95;1.65;;;;;;;3.39;83.01;98866.06;5011401;28;20258;-78
2021/12/11 04:15:01;;;;;;;1.73;1.63;;;;;;;3.39;82.99;98868.66;5026902;28;20206;-78
2021/12/11 04:17:28;;;;;;;3.85;2.35;;;;;;;3.39;83.26;98871.25;5020932;28;20203;-78
2021/12/11 04:19:59;;;;;;;1.65;1.25;;;;;;;3.39;82.94;98881.63;5023219;28;20218;-78
2021/12/11 04:22:25;;;;;;;3.53;1.73;;;;;;;3.38;83.09;98879.13;5023614;28;20619;-78
2021/12/11 04:24:51;;;;;;;2.08;1.90;;;;;;;3.38;83.24;98886.91;5024503;28;20210;-78
2021/12/11 04:27:20;;;;;;;2.27;1.67;;;;;;;3.37;83.17;98899.03;5024503;28;20325;-78
2021/12/11 04:29:49;;;;;;;1.70;1.60;;;;;;;3.37;83.21;98898.19;5023107;28;20473;-78
2021/12/11 04:32:16;;;;;;;3.60;2.80;;;;;;;3.52;83.73;98900.94;5021027;28;20496;-78
2021/12/11 04:34:42;;;;;;;2.05;1.85;;;;;;;3.50;83.78;98901.91;5021172;28;20384;-78
2021/12/11 04:37:18;;;;;;;2.17;1.45;;;;;;;3.47;83.58;98908.09;5024191;28;20398;-78
2021/12/11 04:39:49;;;;;;;1.33;1.10;;;;;;;3.44;83.52;98916.03;5021974;28;20271;-78
2021/12/11 04:42:30;;;;;;;1.67;1.42;;;;;;;3.39;83.97;98917.97;5023336;28;20199;-78
2021/12/11 04:44:55;;;;;;;2.97;1.52;;;;;;;3.38;84.01;98918.06;5026885;28;20222;-77
2021/12/11 04:47:53;;;;;;;2.40;1.50;;;;;;;3.36;83.91;98925.91;5020406;28;20333;-77
2021/12/11 04:50:26;;;;;;;2.58;2.38;;;;;;;3.34;84.00;98925.13;5027458;28;20221;-77
2021/12/11 04:52:55;;;;;;;2.30;1.70;;;;;;;3.32;84.10;98930.41;5024280;28;20214;-77
2021/12/11 04:58:28;;;;;;;2.22;1.83;;;;;;;3.29;84.08;98937.47;5024220;28;20709;-77
2021/12/11 05:11:41;;;;;;;3.95;1.25;;;;;;;3.18;84.70;98966.50;5024465;28;20442;-77
2021/12/11 05:14:12;;;;;;;3.22;1.60;;;;;;;3.17;84.77;98966.56;5019090;28;20336;-77
2021/12/11 05:16:38;;;;;;;1.73;1.35;;;;;;;3.16;84.84;98973.53;5022954;28;20245;-78
2021/12/11 05:19:04;;;;;;;1.50;1.27;;;;;;;3.15;85.37;98982.19;5007985;28;20310;-77
2021/12/11 05:21:29;;;;;;;1.83;1.20;;;;;;;3.14;85.28;98990.06;5022110;28;20710;-77
2021/12/11 05:23:55;;;;;;;3.27;2.13;;;;;;;3.15;85.06;98994.34;5020399;28;20203;-77
2021/12/11 05:26:22;;;;;;;1.90;1.53;;;;;;;3.14;85.16;98998.69;5020325;28;20227;-79
2021/12/11 05:28:48;;;;;;;2.33;1.52;;;;;;;3.12;85.54;98997.06;5024050;28;20278;-79
2021/12/11 05:31:15;;;;;;;2.40;1.50;;;;;;;3.18;85.28;99004.59;5021564;28;21796;-78
2021/12/11 05:33:42;;;;;;;3.58;1.40;;;;;;;3.18;85.35;99008.00;5022402;28;20217;-79
2021/12/11 05:36:10;;;;;;;5.78;1.40;;;;;;;3.16;85.64;99003.78;5021262;28;20269;-79
2021/12/11 05:38:39;;;;;;;2.55;1.40;;;;;;;3.16;85.36;99016.78;5020182;28;20210;-78
2021/12/11 05:41:07;;;;;;;6.63;1.83;;;;;;;3.17;85.70;99029.69;5019126;28;20223;-78
2021/12/11 05:43:33;;;;;;;2.38;1.65;;;;;;;3.18;85.70;99014.97;5018925;28;20579;-76
2021/12/11 05:45:59;;;;;;;1.65;1.15;;;;;;;3.19;85.62;99025.28;5016060;28;20795;-78
2021/12/11 05:48:26;;;;;;;1.30;1.10;;;;;;;3.20;85.34;99026.13;5015319;28;20680;-78
2021/12/11 05:50:55;;;;;;;2.55;2.00;;;;;;;3.20;85.50;99031.31;5017752;28;20551;-78
2021/12/11 05:53:21;;;;;;;1.80;1.20;;;;;;;3.19;85.69;99029.63;4975648;28;20228;-78
2021/12/11 05:55:51;;;;;;;2.28;1.38;;;;;;;3.19;85.77;99037.44;4974250;28;20236;-78
2021/12/11 05:58:45;;;;;;;2.45;1.30;;;;;;;3.18;85.76;99041.75;4968447;28;20236;-78
2021/12/11 06:01:11;;;;;;;3.00;1.50;;;;;;;3.23;85.82;99041.56;4989354;28;20481;-78
2021/12/11 06:03:37;;;;;;;1.55;1.40;;;;;;;3.22;85.85;99051.09;4976922;28;20291;-79
2021/12/11 06:06:05;;;;;;;3.83;1.15;;;;;;;3.21;85.56;99051.16;4974547;28;20293;-79
2021/12/11 06:08:31;;;;;;;2.35;1.83;;;;;;;3.20;85.84;99052.06;4978025;28;20644;-79
2021/12/11 06:10:59;;;;;;;1.55;1.42;;;;;;;3.20;85.83;99060.69;4986868;28;20259;-78
2021/12/11 06:13:29;;;;;;;1.95;1.15;;;;;;;3.19;86.15;99066.81;4992054;28;20565;-78
2021/12/11 06:15:55;;;;;;;3.28;2.97;;;;;;;3.19;85.85;99077.19;4975369;28;20273;-78
2021/12/11 06:18:21;;;;;;;2.05;1.70;;;;;;;3.20;86.06;99084.06;4977233;28;20212;-78
2021/12/11 06:20:48;;;;;;;3.20;1.73;;;;;;;3.23;85.80;99088.28;4976763;28;20239;-79
2021/12/11 06:23:18;;;;;;;2.45;1.52;;;;;;;3.21;85.97;99096.13;4959927;28;20208;-78
2021/12/11 06:25:44;;;;;;;1.88;1.58;;;;;;;3.19;86.11;99092.75;4974163;28;20223;-78
2021/12/11 06:28:10;;;;;;;2.00;1.70;;;;;;;3.18;86.17;99106.63;4984836;28;20680;-78
2021/12/11 06:30:37;;;;;;;2.08;1.42;;;;;;;3.19;85.88;99107.50;4975464;28;20487;-78
2021/12/11 06:33:05;;;;;;;1.90;1.80;;;;;;;3.18;85.92;99117.00;4976062;28;20235;-78
2021/12/11 06:35:53;;;;;;;2.75;1.55;;;;;;;3.19;85.96;99125.66;4973386;28;20232;-79
2021/12/11 06:38:22;;;;;;;1.40;1.23;;;;;;;3.18;86.09;99129.97;4980710;28;20209;-79
2021/12/11 06:40:48;;;;;;;3.00;1.60;;;;;;;3.15;86.17;99137.06;4973345;28;20238;-79
2021/12/11 06:43:14;;;;;;;2.08;1.85;;;;;;;3.16;86.34;99147.41;4978854;28;20203;-79
2021/12/11 06:45:41;;;;;;;5.97;2.63;;;;;;;3.20;86.58;99150.69;4971105;28;21382;-78
2021/12/11 06:48:07;;;;;;;3.85;3.17;;;;;;;3.21;86.24;99160.16;4972706;28;20212;-79
2021/12/11 06:50:32;;;;;;;3.17;2.20;;;;;;;3.21;86.44;99157.56;4974661;28;20207;-79
2021/12/11 06:53:04;;;;;;;2.60;2.40;;;;;;;3.20;86.37;99161.91;4977280;28;20785;-78
2021/12/11 06:55:29;;;;;;;2.47;1.60;;;;;;;3.20;86.23;99177.50;4975582;28;20554;-78
2021/12/11 06:57:55;;;;;;;3.17;2.20;;;;;;;3.21;86.22;99179.16;4954112;28;20223;-80
2021/12/11 07:00:21;;;;;;;3.20;2.37;;;;;;;3.23;86.46;99185.16;4976841;28;20274;-79
2021/12/11 07:02:47;;;;;;;2.55;2.35;;;;;;;3.25;85.94;99180.75;4977816;28;20238;-77
2021/12/11 07:05:13;;;;;;;2.60;2.40;;;;;;;3.25;86.08;99185.09;4973010;28;20590;-78
2021/12/11 07:07:41;;;;;;;1.70;1.40;;;;;;;3.24;86.31;99194.63;4954367;28;20624;-78
2021/12/11 07:10:10;;;;;;;2.17;1.88;;;;;;;3.22;86.35;99195.59;4968634;28;20455;-78
2021/12/11 07:12:35;;;;;;;2.40;1.65;;;;;;;3.19;86.22;99199.16;4974851;28;20208;-78
2021/12/11 07:15:04;;;;;;;3.10;1.60;;;;;;;3.18;86.46;99207.00;4973916;28;20349;-78
2021/12/11 07:17:31;;;;;;;2.20;1.60;;;;;;;3.17;86.37;99210.50;4973399;28;20470;-78
2021/12/11 07:19:57;;;;;;;2.42;2.05;;;;;;;3.15;86.19;99226.13;4974391;28;20211;-78
2021/12/11 07:22:23;;;;;;;2.90;2.33;;;;;;;3.15;86.46;99227.88;4974856;28;20270;-78
2021/12/11 07:24:56;;;;;;;2.55;1.85;;;;;;;3.16;86.44;99232.16;4974005;28;20209;-78
2021/12/11 07:27:22;;;;;;;2.40;2.20;;;;;;;3.14;86.21;99245.22;4971947;28;20223;-78
2021/12/11 07:29:48;;;;;;;4.27;3.17;;;;;;;3.13;86.33;99251.28;4948672;28;20269;-78
2021/12/11 07:32:13;;;;;;;2.73;2.03;;;;;;;3.14;86.30;99258.19;4979407;28;20886;-78
2021/12/11 07:34:40;;;;;;;2.53;2.23;;;;;;;3.15;86.30;99272.00;4978162;28;20829;-78
2021/12/11 07:37:06;;;;;;;7.50;4.43;;;;;;;3.14;86.43;99271.16;4984386;28;20508;-77
2021/12/11 07:39:32;;;;;;;2.37;2.10;;;;;;;3.16;86.20;99279.75;4977360;28;20298;-78
2021/12/11 07:41:59;;;;;;;3.92;3.28;;;;;;;3.15;86.23;99291.00;4979930;28;20712;-77
2021/12/11 07:44:27;;;;;;;4.68;3.25;;;;;;;3.14;86.32;99294.53;5001267;28;20215;-78
2021/12/11 07:46:54;;;;;;;3.15;2.40;;;;;;;3.13;86.39;99300.59;4980105;28;20573;-78
2021/12/11 07:49:21;;;;;;;3.38;3.03;;;;;;;3.15;86.14;99303.16;4979561;28;20219;-79
2021/12/11 07:51:48;;;;;;;3.42;1.83;;;;;;;3.17;86.38;99315.16;4979138;28;20397;-78
2021/12/11 07:54:13;;;;;;;5.97;2.88;;;;;;;3.18;86.08;99329.81;4978189;28;20247;-78
2021/12/11 07:56:40;;;;;;;5.87;5.27;;;;;;;3.18;86.00;99328.97;4978059;28;20239;-77
2021/12/11 07:59:08;;;;;;;5.80;4.65;;;;;;;3.19;86.40;99326.34;4981357;28;20207;-77
2021/12/11 08:01:36;;;;;;;4.72;3.35;;;;;;;3.29;86.50;99329.41;4978610;28;20492;-78
2021/12/11 08:04:04;;;;;;;3.47;2.88;;;;;;;3.28;86.31;99332.94;4978851;28;20211;-77
2021/12/11 08:06:31;;;;;;;3.83;2.63;;;;;;;3.27;85.91;99347.66;4977910;28;20548;-78
2021/12/11 08:08:57;;;;;;;3.05;2.20;;;;;;;3.24;86.00;99342.59;4980721;28;20258;-79
2021/12/11 08:11:25;;;;;;;3.63;2.63;;;;;;;3.23;85.98;99353.84;4979144;28;20215;-77
2021/12/11 08:13:51;;;;;;;4.32;3.22;;;;;;;3.25;85.98;99361.59;4982884;28;20207;-78
2021/12/11 08:16:22;;;;;;;3.40;2.93;;;;;;;3.22;86.15;99362.56;4979242;28;20589;-78
2021/12/11 08:18:47;;;;;;;3.45;2.45;;;;;;;3.22;85.88;99366.91;4978927;28;20458;-78
2021/12/11 08:21:13;;;;;;;2.40;1.70;;;;;;;3.23;85.87;99373.78;4977187;28;20238;-77
2021/12/11 08:23:44;;;;;;;1.60;1.50;;;;;;;3.23;85.96;99373.78;4978070;28;20211;-78
2021/12/11 08:26:14;;;;;;;2.90;2.20;;;;;;;3.24;86.17;99388.44;4978336;28;20479;-79
2021/12/11 08:28:40;;;;;;;7.22;2.55;;;;;;;3.25;85.85;99403.97;4984354;28;20196;-79
2021/12/11 08:31:05;;;;;;;7.20;3.83;;;;;;;3.25;85.72;99398.78;4977574;28;20624;-78
2021/12/11 08:33:31;;;;;;;5.13;3.10;;;;;;;3.26;86.07;99400.47;4979893;28;20223;-78
2021/12/11 08:35:57;;;;;;;19.07;4.93;;;;;;;3.29;85.80;99402.09;4977124;28;20231;-78
2021/12/11 08:38:23;;;;;;;4.10;3.15;;;;;;;3.32;86.21;99408.03;4978739;28;20226;-78
2021/12/11 08:40:53;;;;;;;4.53;2.88;;;;;;;3.36;85.99;99407.91;4997959;28;20228;-78
2021/12/11 08:43:21;;;;;;;4.50;2.85;;;;;;;3.37;85.85;99412.19;4977341;28;20439;-78
2021/12/11 08:46:00;;;;;;;11.20;3.65;;;;;;;3.38;85.71;99408.72;4977922;28;20228;-79
2021/12/11 08:48:26;;;;;;;3.08;2.58;;;;;;;3.41;85.74;99425.03;4969045;28;20231;-80
2021/12/11 08:51:01;;;;;;;2.92;2.65;;;;;;;3.42;85.59;99425.84;4979268;28;20645;-78
2021/12/11 08:53:27;;;;;;;27.48;16.92;;;;;;;3.41;85.88;99432.81;4996986;28;20199;-78
2021/12/11 08:55:54;;;;;;;5.27;3.43;;;;;;;3.43;85.79;99438.78;4988572;28;20251;-78
2021/12/11 08:58:22;;;;;;;5.03;2.55;;;;;;;3.46;85.83;99441.28;4977349;28;20550;-78
2021/12/11 09:00:55;;;;;;;3.65;2.55;;;;;;;3.49;85.55;99450.69;4977561;28;20294;-78
2021/12/11 09:03:25;;;;;;;2.80;2.25;;;;;;;3.51;85.70;99460.13;4967845;28;20261;-79
2021/12/11 09:06:17;;;;;;;2.88;2.30;;;;;;;3.56;85.47;99462.53;4977601;28;20223;-80
2021/12/11 09:08:45;;;;;;;2.38;2.00;;;;;;;3.60;85.43;99471.91;4973306;28;20232;-78
2021/12/11 09:11:19;;;;;;;15.48;6.85;;;;;;;3.67;85.07;99472.53;4975610;28;20246;-79
2021/12/11 09:13:56;;;;;;;15.15;6.25;;;;;;;3.73;85.06;99475.75;4976020;28;20234;-80
2021/12/11 09:16:36;;;;;;;9.10;4.85;;;;;;;3.80;84.93;99488.50;4978077;28;20258;-78
2021/12/11 09:19:14;;;;;;;15.15;5.53;;;;;;;3.84;84.71;99497.88;4975327;28;20547;-78
2021/12/11 09:21:48;;;;;;;19.80;6.78;;;;;;;3.88;84.62;99494.25;4975697;28;20578;-77
2021/12/11 09:24:23;;;;;;;3.03;2.55;;;;;;;4.02;84.40;99504.13;4975988;28;20220;-77
2021/12/11 09:27:06;;;;;;;11.18;2.53;;;;;;;4.19;83.81;99507.75;4977982;28;20234;-78
2021/12/11 09:29:37;;;;;;;6.15;2.25;;;;;;;4.31;83.21;99510.78;4977101;28;20203;-78
2021/12/11 09:32:26;;;;;;;5.30;2.15;;;;;;;4.58;82.49;99514.88;4975415;28;20489;-78
2021/12/11 09:35:10;;;;;;;3.17;2.70;;;;;;;4.73;81.62;99518.63;4975285;28;20604;-79
2021/12/11 09:37:36;;;;;;;3.83;2.13;;;;;;;4.78;81.10;99526.22;4977310;28;20566;-79
2021/12/11 09:40:10;;;;;;;2.38;2.17;;;;;;;4.78;81.13;99537.50;4976194;28;20211;-79
2021/12/11 09:42:35;;;;;;;3.88;2.42;;;;;;;4.78;80.94;99552.25;4965541;28;20220;-79
2021/12/11 09:45:13;;;;;;;4.20;3.80;;;;;;;4.97;80.77;99552.34;4976868;28;20222;-80
2021/12/11 09:47:45;;;;;;;2.75;2.50;;;;;;;5.78;78.73;99546.25;4967314;28;20212;-80
2021/12/11 09:50:17;;;;;;;2.38;2.17;;;;;;;7.21;74.37;99542.03;4977506;28;20311;-80
2021/12/11 09:52:46;;;;;;;4.82;2.90;;;;;;;8.84;68.63;99542.81;4975939;28;20212;-81
2021/12/11 09:55:21;;;;;;;5.97;2.92;;;;;;;10.22;63.96;99541.50;4975923;28;20207;-78
2021/12/11 09:57:51;;;;;;;6.93;3.70;;;;;;;10.31;62.57;99545.34;4976226;28;20218;-79
2021/12/11 10:00:31;;;;;;;5.53;2.80;;;;;;;9.74;64.13;99552.31;4973730;28;20223;-78
2021/12/11 10:02:57;;;;;;;2.10;1.90;;;;;;;9.13;65.68;99556.00;4974844;28;20551;-79
2021/12/11 10:05:43;;;;;;;4.30;2.40;;;;;;;8.73;66.54;99558.31;4975573;28;20676;-78
2021/12/11 10:08:36;;;;;;;3.03;2.60;;;;;;;8.30;67.56;99557.22;4975092;28;20620;-78
2021/12/11 10:11:30;;;;;;;2.95;2.40;;;;;;;7.84;68.97;99570.16;4976861;28;20249;-77
2021/12/11 10:14:13;;;;;;;3.15;2.35;;;;;;;7.50;69.62;99567.50;4975635;28;20329;-78
2021/12/11 10:16:44;;;;;;;3.67;2.40;;;;;;;7.12;70.25;99564.25;4974683;28;20302;-77
2021/12/11 10:19:13;;;;;;;3.58;3.08;;;;;;;6.75;71.57;99566.09;4974869;28;20266;-78
2021/12/11 10:21:45;;;;;;;3.05;2.45;;;;;;;6.41;71.99;99569.44;4974612;28;20275;-78
2021/12/11 10:24:18;;;;;;;2.80;2.22;;;;;;;6.11;72.90;99574.34;4973248;28;20489;-77
2021/12/11 10:26:44;;;;;;;2.38;2.15;;;;;;;5.89;73.96;99574.44;4974866;28;20526;-78
2021/12/11 10:29:14;;;;;;;4.23;2.87;;;;;;;5.65;74.42;99584.19;4975019;28;20283;-78
2021/12/11 10:31:53;;;;;;;2.60;2.20;;;;;;;5.43;75.06;99585.13;4973532;28;21777;-78
2021/12/11 10:34:26;;;;;;;3.88;2.30;;;;;;;5.30;75.66;99582.16;4975385;28;20239;-79
2021/12/11 10:37:07;;;;;;;2.70;2.50;;;;;;;5.24;76.01;99589.41;4973167;28;20250;-81
2021/12/11 10:39:34;;;;;;;4.38;2.70;;;;;;;5.21;76.15;99586.91;4974394;28;20261;-78
2021/12/11 10:42:00;;;;;;;3.13;2.58;;;;;;;5.19;76.60;99599.16;4973795;28;20263;-79
2021/12/11 10:44:34;;;;;;;2.92;2.63;;;;;;;5.14;76.40;99598.50;4976394;28;20223;-78
2021/12/11 10:47:08;;;;;;;2.80;2.60;;;;;;;5.12;76.89;99597.72;4975452;28;20568;-78
2021/12/11 10:49:35;;;;;;;3.92;3.40;;;;;;;5.04;76.63;99606.69;4974464;28;20196;-78
2021/12/11 10:52:12;;;;;;;4.20;2.75;;;;;;;4.99;76.81;99613.00;4974569;28;20276;-78
2021/12/11 10:54:37;;;;;;;1.90;1.70;;;;;;;4.93;77.21;99611.47;4973236;28;20571;-78
2021/12/11 10:57:03;;;;;;;3.33;2.53;;;;;;;4.87;77.36;99624.75;4975849;28;20745;-78
2021/12/11 10:59:32;;;;;;;5.53;3.70;;;;;;;4.82;77.81;99632.75;4975005;28;20543;-79
2021/12/11 11:02:10;;;;;;;4.45;3.50;;;;;;;4.89;77.87;99633.34;4975100;28;20476;-78
2021/12/11 11:04:46;;;;;;;4.28;2.60;;;;;;;4.84;77.85;99633.53;4977078;28;20261;-78
2021/12/11 11:07:11;;;;;;;3.25;2.67;;;;;;;4.81;78.34;99635.41;4975492;28;20227;-78
2021/12/11 11:09:38;;;;;;;8.33;4.50;;;;;;;4.81;78.61;99635.41;4978674;28;20208;-79
2021/12/11 11:12:09;;;;;;;2.60;2.40;;;;;;;4.78;78.34;99631.19;4976745;28;20446;-77
2021/12/11 11:14:34;;;;;;;4.07;3.70;;;;;;;4.75;78.66;99635.63;4979780;28;20218;-79
2021/12/11 11:17:07;;;;;;;6.27;3.70;;;;;;;4.73;78.62;99632.28;4981522;28;20223;-79
2021/12/11 11:19:38;;;;;;;6.00;3.35;;;;;;;4.70;79.06;99638.44;4988491;28;20212;-80
2021/12/11 11:22:08;;;;;;;4.00;2.85;;;;;;;4.69;78.83;99641.09;4992163;28;20589;-78
2021/12/11 11:24:39;;;;;;;4.88;3.90;;;;;;;4.66;79.16;99642.88;4980482;28;20326;-78
2021/12/11 11:27:06;;;;;;;5.05;4.00;;;;;;;4.68;79.17;99655.84;4983581;28;20227;-78
2021/12/11 11:29:33;;;;;;;5.15;3.42;;;;;;;4.69;79.21;99654.09;4983301;28;20240;-77
2021/12/11 11:32:04;;;;;;;3.65;3.35;;;;;;;4.68;79.33;99660.22;4982516;28;20266;-78
2021/12/11 11:34:31;;;;;;;4.25;3.00;;;;;;;4.69;79.23;99664.50;4980242;28;20244;-79
2021/12/11 11:36:59;;;;;;;4.30;4.00;;;;;;;4.67;79.57;99667.16;4982031;28;20232;-80
2021/12/11 11:39:26;;;;;;;5.93;5.43;;;;;;;4.69;79.69;99672.31;4979718;28;20238;-78
2021/12/11 11:41:58;;;;;;;5.50;4.05;;;;;;;4.71;79.77;99667.91;4978123;28;20232;-79
2021/12/11 11:44:26;;;;;;;4.63;3.60;;;;;;;4.75;80.10;99674.66;4981033;28;20208;-81
2021/12/11 11:46:54;;;;;;;4.28;3.63;;;;;;;4.73;80.20;99679.09;4980422;28;20227;-81
2021/12/11 11:49:20;;;;;;;5.10;4.18;;;;;;;4.72;80.16;99677.38;4979531;28;20234;-78
2021/12/11 11:51:51;;;;;;;4.33;3.93;;;;;;;4.72;80.37;99682.59;4979995;28;20204;-78
2021/12/11 11:54:20;;;;;;;4.00;3.60;;;;;;;4.72;80.56;99680.84;4980415;28;20473;-78
2021/12/11 11:59:27;;;;;;;3.42;3.13;;;;;;;4.65;80.75;99685.44;4952636;28;20232;-80
2021/12/11 12:02:00;;;;;;;5.20;4.70;;;;;;;4.74;81.12;99688.59;4958394;28;20494;-81
2021/12/11 12:04:28;;;;;;;3.47;3.17;;;;;;;4.67;80.91;99693.16;4967610;28;20475;-80
2021/12/11 12:06:59;;;;;;;3.78;3.47;;;;;;;4.65;81.43;99689.81;4945663;28;20251;-80
2021/12/11 12:09:27;;;;;;;4.03;3.10;;;;;;;4.64;81.12;99685.47;4939733;29;20209;-79
2021/12/11 12:11:57;;;;;;;5.10;4.60;;;;;;;4.62;81.20;99685.56;4948438;29;20280;-79
2021/12/11 12:14:26;;;;;;;4.95;4.55;;;;;;;4.62;81.31;99684.72;4948235;29;20633;-79
2021/12/11 12:16:53;;;;;;;4.80;3.70;;;;;;;4.60;81.31;99684.75;4948866;28;20225;-79